createdAt,value
2023-05-22T00:01:46.856Z,8.30
2023-05-22T00:04:13.754Z,8.00
2023-05-22T00:06:43.947Z,8.20
2023-05-22T00:09:11.146Z,8.30
2023-05-22T00:11:39.472Z,8.50
2023-05-22T00:14:06.332Z,8.30
2023-05-22T00:16:33.118Z,9.10
2023-05-22T00:19:01.111Z,8.70
2023-05-22T00:21:27.994Z,8.40
2023-05-22T00:23:54.791Z,7.50
2023-05-22T00:26:24.136Z,7.50
2023-05-22T00:28:51.090Z,7.60
2023-05-22T00:31:17.969Z,7.60
2023-05-22T00:33:44.764Z,8.20
2023-05-22T00:36:11.635Z,8.30
2023-05-22T00:38:38.496Z,7.70
2023-05-22T00:41:06.128Z,8.00
2023-05-22T00:43:33.346Z,7.80
2023-05-22T00:46:00.178Z,7.20
2023-05-22T00:48:27.038Z,6.70
2023-05-22T00:50:54.489Z,6.70
2023-05-22T00:53:22.022Z,6.60
2023-05-22T00:55:48.844Z,7.30
2023-05-22T00:58:17.133Z,7.40
2023-05-22T01:00:43.972Z,7.30
2023-05-22T01:03:11.028Z,7.40
2023-05-22T01:05:38.155Z,7.40
2023-05-22T01:08:06.817Z,7.10
2023-05-22T01:10:34.370Z,7.40
2023-05-22T01:13:05.200Z,7.20
2023-05-22T01:15:36.211Z,7.00
2023-05-22T01:18:11.353Z,7.90
2023-05-22T01:20:42.889Z,7.50
2023-05-22T01:23:09.714Z,7.30
2023-05-22T01:25:53.113Z,7.60
2023-05-22T01:28:38.695Z,8.30
2023-05-22T01:31:06.725Z,8.10
2023-05-22T01:33:34.308Z,7.30
2023-05-22T01:36:01.376Z,7.30
2023-05-22T01:38:28.303Z,6.50
2023-05-22T01:40:55.499Z,7.00
2023-05-22T01:43:22.307Z,6.60
2023-05-22T01:45:49.331Z,7.50
2023-05-22T01:48:16.296Z,6.50
2023-05-22T01:50:43.210Z,6.80
2023-05-22T01:53:29.128Z,7.70
2023-05-22T01:56:05.485Z,6.90
2023-05-22T01:58:37.748Z,6.90
2023-05-22T02:01:06.783Z,6.70
2023-05-22T02:03:36.577Z,6.70
2023-05-22T02:06:07.204Z,6.20
2023-05-22T02:08:34.512Z,6.60
2023-05-22T02:11:02.283Z,6.30
2023-05-22T02:13:29.151Z,6.10
2023-05-22T02:15:57.378Z,7.30
2023-05-22T02:18:31.170Z,8.10
2023-05-22T02:20:58.247Z,8.30
2023-05-22T02:23:25.203Z,7.90
2023-05-22T02:25:52.176Z,8.10
2023-05-22T02:28:19.014Z,8.60
2023-05-22T02:30:45.980Z,8.30
2023-05-22T02:33:13.105Z,7.40
2023-05-22T02:35:39.953Z,7.70
2023-05-22T02:38:07.026Z,8.00
2023-05-22T02:40:33.974Z,7.60
2023-05-22T02:43:00.977Z,8.40
2023-05-22T02:45:28.348Z,7.80
2023-05-22T02:47:56.006Z,8.80
2023-05-22T02:50:22.869Z,7.60
2023-05-22T02:52:50.682Z,8.60
2023-05-22T02:55:17.564Z,8.70
2023-05-22T02:57:44.368Z,7.40
2023-05-22T03:00:11.826Z,7.50
2023-05-22T03:02:38.990Z,7.10
2023-05-22T03:05:06.290Z,7.80
2023-05-22T03:07:34.848Z,7.40
2023-05-22T03:10:02.376Z,8.60
2023-05-22T03:12:29.819Z,9.20
2023-05-22T03:14:56.765Z,7.90
2023-05-22T03:17:23.603Z,8.40
2023-05-22T03:19:50.589Z,9.00
2023-05-22T03:22:18.733Z,8.40
2023-05-22T03:24:45.894Z,8.00
2023-05-22T03:27:14.992Z,9.00
2023-05-22T03:29:42.013Z,7.40
2023-05-22T03:32:08.850Z,8.30
2023-05-22T03:34:36.346Z,8.90
2023-05-22T03:37:04.329Z,7.80
2023-05-22T03:39:31.262Z,8.30
2023-05-22T03:42:06.030Z,9.20
2023-05-22T03:44:32.881Z,7.40
2023-05-22T03:47:00.399Z,7.60
2023-05-22T03:49:27.145Z,7.80
2023-05-22T03:51:53.970Z,7.50
2023-05-22T03:54:21.446Z,8.10
2023-05-22T03:56:48.287Z,8.00
2023-05-22T03:59:15.064Z,7.10
2023-05-22T04:01:42.179Z,7.00
2023-05-22T04:04:09.725Z,7.50
2023-05-22T04:06:43.361Z,7.30
2023-05-22T04:09:12.781Z,7.40
2023-05-22T04:11:42.684Z,6.80
2023-05-22T04:14:09.646Z,7.00
2023-05-22T04:16:36.580Z,7.20
2023-05-22T04:19:03.691Z,7.00
2023-05-22T04:21:34.328Z,6.40
2023-05-22T04:24:01.803Z,6.00
2023-05-22T04:26:32.211Z,6.10
2023-05-22T04:28:59.046Z,6.90
2023-05-22T04:31:28.074Z,6.70
2023-05-22T04:33:56.098Z,6.70
2023-05-22T04:36:26.293Z,6.40
2023-05-22T04:38:53.334Z,5.80
2023-05-22T04:41:22.695Z,6.10
2023-05-22T04:43:53.109Z,5.70
2023-05-22T04:46:20.020Z,6.60
2023-05-22T04:48:47.395Z,6.00
2023-05-22T04:51:15.993Z,6.00
2023-05-22T04:53:42.956Z,6.70
2023-05-22T04:56:10.092Z,6.00
2023-05-22T04:58:38.360Z,6.20
2023-05-22T05:01:06.027Z,5.30
2023-05-22T05:03:32.989Z,5.50
2023-05-22T05:06:00.610Z,5.80
2023-05-22T05:08:27.430Z,5.10
2023-05-22T05:10:54.286Z,5.50
2023-05-22T05:13:21.206Z,5.20
2023-05-22T05:15:48.154Z,5.40
2023-05-22T05:18:15.114Z,5.30
2023-05-22T05:20:42.412Z,5.10
2023-05-22T05:23:10.460Z,5.30
2023-05-22T05:25:40.828Z,5.20
2023-05-22T05:28:11.347Z,4.70
2023-05-22T05:30:39.501Z,4.90
2023-05-22T05:33:11.954Z,5.10
2023-05-22T05:35:54.228Z,5.00
2023-05-22T05:38:24.209Z,4.30
2023-05-22T05:40:51.678Z,4.30
2023-05-22T05:43:20.349Z,3.70
2023-05-22T05:45:49.334Z,3.70
2023-05-22T05:48:16.775Z,3.50
2023-05-22T05:50:45.726Z,3.60
2023-05-22T05:53:12.695Z,3.20
2023-05-22T05:55:42.879Z,3.80
2023-05-22T05:58:09.683Z,3.50
2023-05-22T06:00:56.697Z,3.70
2023-05-22T06:03:25.706Z,3.80
2023-05-22T06:06:03.449Z,4.00
2023-05-22T06:08:49.077Z,3.70
2023-05-22T06:11:16.124Z,3.50
2023-05-22T06:13:51.189Z,3.70
2023-05-22T06:16:18.049Z,3.70
2023-05-22T06:18:46.437Z,4.00
2023-05-22T06:21:13.261Z,3.40
2023-05-22T06:23:40.153Z,3.80
2023-05-22T06:26:07.482Z,4.40
2023-05-22T06:28:36.124Z,4.00
2023-05-22T06:31:03.139Z,3.80
2023-05-22T06:33:30.220Z,4.00
2023-05-22T06:35:57.200Z,4.40
2023-05-22T06:38:24.155Z,3.90
2023-05-22T06:40:50.941Z,4.30
2023-05-22T06:43:21.209Z,4.20
2023-05-22T06:45:55.143Z,4.10
2023-05-22T06:48:40.952Z,4.10
2023-05-22T06:51:15.616Z,3.70
2023-05-22T06:53:42.580Z,3.80
2023-05-22T06:56:17.954Z,4.90
2023-05-22T06:58:51.375Z,3.80
2023-05-22T07:01:18.631Z,4.10
2023-05-22T07:03:57.529Z,4.70
2023-05-22T07:06:33.726Z,3.70
2023-05-22T07:09:01.681Z,3.90
2023-05-22T07:11:28.684Z,3.40
2023-05-22T07:13:55.642Z,3.70
2023-05-22T07:16:22.732Z,3.70
2023-05-22T07:18:50.108Z,3.60
2023-05-22T07:21:17.340Z,4.10
2023-05-22T07:23:44.565Z,3.60
2023-05-22T07:26:11.465Z,3.60
2023-05-22T07:28:45.011Z,3.30
2023-05-22T07:31:13.719Z,3.60
2023-05-22T07:33:40.765Z,3.60
2023-05-22T07:36:07.831Z,3.10
2023-05-22T07:38:35.679Z,3.70
2023-05-22T07:41:04.854Z,4.00
2023-05-22T07:43:33.312Z,3.30
2023-05-22T07:46:00.334Z,3.00
2023-05-22T07:48:31.322Z,2.90
2023-05-22T07:50:58.646Z,3.10
2023-05-22T07:53:25.633Z,2.60
2023-05-22T07:55:53.260Z,3.00
2023-05-22T07:58:20.371Z,3.00
2023-05-22T08:00:47.733Z,3.20
2023-05-22T08:03:14.928Z,3.00
2023-05-22T08:05:43.197Z,2.70
2023-05-22T08:08:13.095Z,2.90
2023-05-22T08:13:10.547Z,3.20
2023-05-22T08:15:37.444Z,3.00
2023-05-22T08:18:04.338Z,2.90
2023-05-22T08:20:31.350Z,2.60
2023-05-22T08:22:59.315Z,2.60
2023-05-22T08:25:26.263Z,2.70
2023-05-22T08:27:53.038Z,2.80
2023-05-22T08:30:19.919Z,2.80
2023-05-22T08:32:46.827Z,3.20
2023-05-22T08:35:14.553Z,3.50
2023-05-22T08:37:41.720Z,3.00
2023-05-22T08:40:13.016Z,2.50
2023-05-22T08:42:39.906Z,3.20
2023-05-22T08:45:07.225Z,2.50
2023-05-22T08:47:37.441Z,2.70
2023-05-22T08:50:04.640Z,2.60
2023-05-22T08:52:50.128Z,2.50
2023-05-22T08:55:19.546Z,3.10
2023-05-22T08:57:46.466Z,2.40
2023-05-22T09:00:13.515Z,2.90
2023-05-22T09:02:40.504Z,2.50
2023-05-22T09:05:07.599Z,3.00
2023-05-22T09:07:34.534Z,2.80
2023-05-22T09:10:05.433Z,2.70
2023-05-22T09:12:32.828Z,2.60
2023-05-22T09:15:10.663Z,2.80
2023-05-22T09:17:41.280Z,2.90
2023-05-22T09:20:10.304Z,2.40
2023-05-22T09:22:40.082Z,2.90
2023-05-22T09:25:07.143Z,2.70
2023-05-22T09:27:34.331Z,2.50
2023-05-22T09:30:01.366Z,2.60
2023-05-22T09:32:31.497Z,2.90
2023-05-22T09:35:04.914Z,2.80
2023-05-22T09:37:35.545Z,2.60
2023-05-22T09:40:08.797Z,2.30
2023-05-22T09:42:35.958Z,2.70
2023-05-22T09:45:03.537Z,2.70
2023-05-22T09:47:31.121Z,2.60
2023-05-22T09:49:58.818Z,2.50
2023-05-22T09:52:26.053Z,2.80
2023-05-22T09:54:56.649Z,2.90
2023-05-22T09:57:24.439Z,2.90
2023-05-22T09:59:54.428Z,2.50
2023-05-22T10:02:22.548Z,2.70
2023-05-22T10:04:52.889Z,2.40
2023-05-22T10:07:23.533Z,2.60
2023-05-22T10:10:01.388Z,2.30
2023-05-22T10:12:28.267Z,2.40
2023-05-22T10:14:55.136Z,2.70
2023-05-22T10:17:22.040Z,2.70
2023-05-22T10:19:48.979Z,2.70
2023-05-22T10:22:20.986Z,2.50
2023-05-22T10:24:51.030Z,2.90
2023-05-22T10:27:17.980Z,2.60
2023-05-22T10:29:51.094Z,2.60
2023-05-22T10:32:33.318Z,3.10
2023-05-22T10:35:02.931Z,2.70
2023-05-22T10:37:37.691Z,2.80
2023-05-22T10:40:05.652Z,2.50
2023-05-22T10:42:32.773Z,2.90
2023-05-22T10:45:00.866Z,3.10
2023-05-22T10:47:27.733Z,2.80
2023-05-22T10:50:04.783Z,2.00
2023-05-22T10:52:31.786Z,2.40
2023-05-22T10:54:59.971Z,2.30
2023-05-22T10:57:26.934Z,3.10
2023-05-22T10:59:55.287Z,2.70
2023-05-22T11:02:29.871Z,2.40
2023-05-22T11:05:16.034Z,2.40
2023-05-22T11:07:42.952Z,2.80
2023-05-22T11:10:09.759Z,2.30
2023-05-22T11:12:37.545Z,2.40
2023-05-22T11:15:06.097Z,3.50
2023-05-22T11:17:33.697Z,3.10
2023-05-22T11:20:07.350Z,2.60
2023-05-22T11:22:35.201Z,2.40
2023-05-22T11:25:06.612Z,2.60
2023-05-22T11:27:33.636Z,2.30
2023-05-22T11:30:01.359Z,2.50
2023-05-22T11:32:33.441Z,2.90
2023-05-22T11:37:27.058Z,2.30
2023-05-22T11:39:57.682Z,2.40
2023-05-22T11:42:24.993Z,2.70
2023-05-22T11:44:51.923Z,2.50
2023-05-22T11:47:19.156Z,2.40
2023-05-22T11:49:46.185Z,3.20
2023-05-22T11:52:13.041Z,2.40
2023-05-22T11:54:40.389Z,2.30
2023-05-22T11:57:08.166Z,2.20
2023-05-22T11:59:37.449Z,2.70
2023-05-22T12:02:06.638Z,2.30
2023-05-22T12:04:33.931Z,2.40
2023-05-22T12:07:01.390Z,2.70
2023-05-22T12:09:28.735Z,2.30
2023-05-22T12:11:56.943Z,2.60
2023-05-22T12:14:28.134Z,3.20
2023-05-22T12:16:58.426Z,2.70
2023-05-22T12:19:25.952Z,2.40
2023-05-22T12:21:53.805Z,2.60
2023-05-22T12:24:23.464Z,2.50
2023-05-22T12:26:51.460Z,2.60
2023-05-22T12:29:19.134Z,3.10
2023-05-22T12:31:46.750Z,2.50
2023-05-22T12:34:15.329Z,2.60
2023-05-22T12:36:43.162Z,3.00
2023-05-22T12:39:11.253Z,3.10
2023-05-22T12:41:38.569Z,2.70
2023-05-22T12:44:06.210Z,2.70
2023-05-22T12:46:33.882Z,2.60
2023-05-22T12:49:01.472Z,2.30
2023-05-22T12:51:32.328Z,3.10
2023-05-22T12:53:59.693Z,3.70
2023-05-22T12:56:27.120Z,3.70
2023-05-22T12:58:56.385Z,2.60
2023-05-22T13:01:24.980Z,2.50
2023-05-22T13:03:53.562Z,2.90
2023-05-22T13:06:21.076Z,2.40
2023-05-22T13:08:48.477Z,2.60
2023-05-22T13:11:16.817Z,2.40
2023-05-22T13:13:44.361Z,3.00
2023-05-22T13:16:12.237Z,3.10
2023-05-22T13:18:41.540Z,2.20
2023-05-22T13:21:08.918Z,3.30
2023-05-22T13:23:36.322Z,2.40
2023-05-22T13:26:03.908Z,2.30
2023-05-22T13:28:31.357Z,2.50
2023-05-22T13:30:58.733Z,3.00
2023-05-22T13:33:26.110Z,2.80
2023-05-22T13:35:53.589Z,2.70
2023-05-22T13:38:21.016Z,2.80
2023-05-22T13:40:48.979Z,2.60
2023-05-22T13:43:16.429Z,2.90
2023-05-22T13:45:43.831Z,2.60
2023-05-22T13:48:11.471Z,2.80
2023-05-22T13:50:38.826Z,2.10
2023-05-22T13:53:06.206Z,2.60
2023-05-22T13:55:33.537Z,2.50
2023-05-22T13:58:00.901Z,2.50
2023-05-22T14:00:28.254Z,2.40
2023-05-22T14:02:55.821Z,2.40
2023-05-22T14:05:23.780Z,3.00
2023-05-22T14:07:51.384Z,2.30
2023-05-22T14:10:18.868Z,3.10
2023-05-22T14:12:46.341Z,2.40
2023-05-22T14:15:16.096Z,2.40
2023-05-22T14:17:43.670Z,2.30
2023-05-22T14:20:11.345Z,2.60
2023-05-22T14:22:55.248Z,2.70
2023-05-22T14:25:23.682Z,2.40
2023-05-22T14:27:51.145Z,2.60
2023-05-22T14:30:19.066Z,2.40
2023-05-22T14:32:47.080Z,2.40
2023-05-22T14:35:16.727Z,2.50
2023-05-22T14:37:44.191Z,2.20
2023-05-22T14:40:11.517Z,2.60
2023-05-22T14:42:38.925Z,2.60
2023-05-22T14:45:06.623Z,2.90
2023-05-22T14:47:34.950Z,2.90
2023-05-22T14:50:14.664Z,2.90
2023-05-22T14:52:46.893Z,2.80
2023-05-22T14:55:14.512Z,2.90
2023-05-22T14:57:41.815Z,2.80
2023-05-22T15:00:10.351Z,2.50
2023-05-22T15:02:37.781Z,2.80
2023-05-22T15:05:07.138Z,2.50
2023-05-22T15:07:43.868Z,2.80
2023-05-22T15:10:13.255Z,2.30
2023-05-22T15:12:40.769Z,2.40
2023-05-22T15:15:08.750Z,2.60
2023-05-22T15:17:36.437Z,2.70
2023-05-22T15:20:05.509Z,2.50
2023-05-22T15:22:32.930Z,2.30
2023-05-22T15:25:07.278Z,2.50
2023-05-22T15:27:35.534Z,2.50
2023-05-22T15:30:04.241Z,3.20
2023-05-22T15:32:32.122Z,2.50
2023-05-22T15:34:59.524Z,2.50
2023-05-22T15:37:27.148Z,3.00
2023-05-22T15:39:54.542Z,2.80
2023-05-22T15:42:22.113Z,2.80
2023-05-22T15:44:52.109Z,2.60
2023-05-22T15:47:19.432Z,2.60
2023-05-22T15:49:47.606Z,3.10
2023-05-22T15:52:14.957Z,2.90
2023-05-22T15:54:42.314Z,2.70
2023-05-22T15:57:09.647Z,2.80
2023-05-22T15:59:37.013Z,3.10
2023-05-22T16:02:05.831Z,2.70
2023-05-22T16:04:33.181Z,3.10
2023-05-22T16:07:00.540Z,3.50
2023-05-22T16:09:27.934Z,3.10
2023-05-22T16:11:55.486Z,2.80
2023-05-22T16:14:22.898Z,2.60
2023-05-22T16:16:50.474Z,2.70
2023-05-22T16:19:17.951Z,2.70
2023-05-22T16:21:45.307Z,3.10
2023-05-22T16:24:12.651Z,3.20
2023-05-22T16:26:40.012Z,3.10
2023-05-22T16:29:08.158Z,3.00
2023-05-22T16:31:35.816Z,3.60
2023-05-22T16:34:03.460Z,3.30
2023-05-22T16:36:31.251Z,3.50
2023-05-22T16:38:58.764Z,3.50
2023-05-22T16:41:26.917Z,2.90
2023-05-22T16:43:54.319Z,4.50
2023-05-22T16:46:21.782Z,4.20
2023-05-22T16:48:49.163Z,3.30
2023-05-22T16:51:16.590Z,3.40
2023-05-22T16:53:44.167Z,3.50
2023-05-22T16:56:11.669Z,3.90
2023-05-22T16:58:39.042Z,3.70
2023-05-22T17:01:06.608Z,3.60
2023-05-22T17:03:34.293Z,4.00
2023-05-22T17:06:03.199Z,4.50
2023-05-22T17:08:30.776Z,3.80
2023-05-22T17:10:58.083Z,3.40
2023-05-22T17:13:25.581Z,4.20
2023-05-22T17:15:53.081Z,3.50
2023-05-22T17:18:21.015Z,3.90
2023-05-22T17:20:49.452Z,4.50
2023-05-22T17:23:16.966Z,4.20
2023-05-22T17:25:46.770Z,4.10
2023-05-22T17:28:15.147Z,3.50
2023-05-22T17:30:43.182Z,4.20
2023-05-22T17:33:11.109Z,3.40
2023-05-22T17:35:44.050Z,4.20
2023-05-22T17:38:12.067Z,4.00
2023-05-22T17:40:45.344Z,3.60
2023-05-22T17:43:13.848Z,4.20
2023-05-22T17:45:41.821Z,4.20
2023-05-22T17:48:09.665Z,4.70
2023-05-22T17:50:37.518Z,4.30
2023-05-22T17:53:04.995Z,3.70
2023-05-22T17:55:32.364Z,4.30
2023-05-22T17:57:59.919Z,3.90
2023-05-22T18:00:27.420Z,4.60
2023-05-22T18:02:54.834Z,4.30
2023-05-22T18:05:22.259Z,4.40
2023-05-22T18:07:49.597Z,4.60
2023-05-22T18:10:16.995Z,4.70
2023-05-22T18:12:44.343Z,5.10
2023-05-22T18:15:12.396Z,4.80
2023-05-22T18:17:41.365Z,4.90
2023-05-22T18:20:09.489Z,4.70
2023-05-22T18:22:37.265Z,5.10
2023-05-22T18:25:05.818Z,4.70
2023-05-22T18:27:33.560Z,5.00
2023-05-22T18:30:01.072Z,5.20
2023-05-22T18:32:28.486Z,4.90
2023-05-22T18:34:55.889Z,5.10
2023-05-22T18:37:23.383Z,4.50
2023-05-22T18:39:50.733Z,4.90
2023-05-22T18:42:18.060Z,5.30
2023-05-22T18:44:48.845Z,4.90
2023-05-22T18:47:16.922Z,5.60
2023-05-22T18:49:44.373Z,5.10
2023-05-22T18:52:11.787Z,5.70
2023-05-22T18:54:39.149Z,5.70
2023-05-22T18:57:06.527Z,5.30
2023-05-22T18:59:34.597Z,5.10
2023-05-22T19:02:01.978Z,4.80
2023-05-22T19:04:29.376Z,5.50
2023-05-22T19:06:56.864Z,5.10
2023-05-22T19:09:24.564Z,5.20
2023-05-22T19:11:51.966Z,5.50
2023-05-22T19:14:19.311Z,5.00
2023-05-22T19:16:46.714Z,5.50
2023-05-22T19:19:14.900Z,5.00
2023-05-22T19:21:42.775Z,5.40
2023-05-22T19:24:10.086Z,5.20
2023-05-22T19:26:37.440Z,5.50
2023-05-22T19:29:04.795Z,5.40
2023-05-22T19:31:32.235Z,5.50
2023-05-22T19:33:59.692Z,5.10
2023-05-22T19:36:27.014Z,5.60
2023-05-22T19:38:54.486Z,5.70
2023-05-22T19:41:23.139Z,5.10
2023-05-22T19:43:51.302Z,5.60
2023-05-22T19:46:18.823Z,5.30
2023-05-22T19:48:46.500Z,6.60
2023-05-22T19:51:14.567Z,5.70
2023-05-22T19:53:42.558Z,6.20
2023-05-22T19:56:10.373Z,6.40
2023-05-22T19:58:37.781Z,6.40
2023-05-22T20:01:07.044Z,7.90
2023-05-22T20:03:34.589Z,7.20
2023-05-22T20:06:03.421Z,6.10
2023-05-22T20:08:30.795Z,6.30
2023-05-22T20:10:58.472Z,6.60
2023-05-22T20:13:25.835Z,6.90
2023-05-22T20:15:53.562Z,6.40
2023-05-22T20:18:22.253Z,6.10
2023-05-22T20:20:49.934Z,7.20
2023-05-22T20:23:17.302Z,7.00
2023-05-22T20:25:47.351Z,7.20
2023-05-22T20:28:14.635Z,7.10
2023-05-22T20:30:42.005Z,6.10
2023-05-22T20:33:09.455Z,7.20
2023-05-22T20:35:37.311Z,6.90
2023-05-22T20:38:04.764Z,7.30
2023-05-22T20:40:35.078Z,7.10
2023-05-22T20:43:03.980Z,7.10
2023-05-22T20:45:31.434Z,7.30
2023-05-22T20:47:58.932Z,8.30
2023-05-22T20:50:26.359Z,8.40
2023-05-22T20:52:54.224Z,8.10
2023-05-22T20:55:21.671Z,8.10
2023-05-22T20:57:49.038Z,8.60
2023-05-22T21:00:16.660Z,8.70
2023-05-22T21:02:44.176Z,8.20
2023-05-22T21:05:11.584Z,8.40
2023-05-22T21:07:38.894Z,8.90
2023-05-22T21:10:06.700Z,9.40
2023-05-22T21:12:34.071Z,9.10
2023-05-22T21:15:01.460Z,9.00
2023-05-22T21:17:29.031Z,9.00
2023-05-22T21:19:56.348Z,8.80
2023-05-22T21:22:23.708Z,9.20
2023-05-22T21:24:51.098Z,9.50
2023-05-22T21:27:18.549Z,9.30
2023-05-22T21:29:46.023Z,8.70
2023-05-22T21:32:13.570Z,9.10
2023-05-22T21:34:40.901Z,9.60
2023-05-22T21:37:09.224Z,10.00
2023-05-22T21:39:36.732Z,9.10
2023-05-22T21:42:04.183Z,10.00
2023-05-22T21:44:31.529Z,9.60
2023-05-22T21:46:58.944Z,10.30
2023-05-22T21:49:26.421Z,9.30
2023-05-22T21:51:53.802Z,8.50
2023-05-22T21:54:21.160Z,9.40
2023-05-22T21:56:48.622Z,9.50
2023-05-22T21:59:16.049Z,9.50
2023-05-22T22:01:43.487Z,9.00
2023-05-22T22:04:11.188Z,9.30
2023-05-22T22:06:38.594Z,10.60
2023-05-22T22:09:05.889Z,9.40
2023-05-22T22:11:33.275Z,9.60
2023-05-22T22:14:00.714Z,10.30
2023-05-22T22:16:28.567Z,9.60
2023-05-22T22:18:56.087Z,11.40
2023-05-22T22:21:23.538Z,10.50
2023-05-22T22:23:50.830Z,10.70
2023-05-22T22:26:18.247Z,9.60
2023-05-22T22:28:45.985Z,9.00
2023-05-22T22:31:13.339Z,9.10
2023-05-22T22:33:40.754Z,8.60
2023-05-22T22:36:08.865Z,8.40
2023-05-22T22:38:36.238Z,8.40
2023-05-22T22:41:04.843Z,9.00
2023-05-22T22:43:32.182Z,9.30
2023-05-22T22:45:59.610Z,9.70
2023-05-22T22:48:27.602Z,8.10
2023-05-22T22:50:55.016Z,9.40
2023-05-22T22:53:22.355Z,9.50
2023-05-22T22:55:52.058Z,9.40
2023-05-22T22:58:19.334Z,9.30
2023-05-22T23:00:48.870Z,9.50
2023-05-22T23:03:16.782Z,9.50
2023-05-22T23:05:44.512Z,8.20
2023-05-22T23:08:12.210Z,8.60
2023-05-22T23:10:39.493Z,8.00
2023-05-22T23:13:07.040Z,8.10
2023-05-22T23:15:34.386Z,8.10
2023-05-22T23:18:01.727Z,9.80
2023-05-22T23:20:29.030Z,8.90
2023-05-22T23:22:56.645Z,9.20
2023-05-22T23:25:24.015Z,9.10
2023-05-22T23:27:52.181Z,9.10
2023-05-22T23:30:19.566Z,9.40
2023-05-22T23:32:46.954Z,9.20
2023-05-22T23:35:14.711Z,8.20
2023-05-22T23:37:42.106Z,9.10
2023-05-22T23:40:09.770Z,7.60
2023-05-22T23:42:37.481Z,8.40
2023-05-22T23:45:05.083Z,8.30
2023-05-22T23:47:32.463Z,8.90
2023-05-22T23:50:00.247Z,9.20
2023-05-22T23:52:27.744Z,10.30
2023-05-22T23:54:55.046Z,9.40
2023-05-22T23:57:22.443Z,9.50
2023-05-22T23:59:49.758Z,9.90
